sensor_id;sensor_type;location;lat;lon;timestamp;P1;durP1;ratioP1;P2;durP2;ratioP2
51872;SDS011;52863;52.504;13.480;2022-10-29T00:02:02;12.40;;;6.30;;
51872;SDS011;52863;52.504;13.480;2022-10-29T00:04:30;13.97;;;6.90;;
51872;SDS011;52863;52.504;13.480;2022-10-29T00:06:57;16.03;;;6.17;;
51872;SDS011;52863;52.504;13.480;2022-10-29T00:09:24;14.17;;;5.30;;
51872;SDS011;52863;52.504;13.480;2022-10-29T00:11:51;11.03;;;6.13;;
51872;SDS011;52863;52.504;13.480;2022-10-29T00:14:18;11.07;;;5.77;;
51872;SDS011;52863;52.504;13.480;2022-10-29T00:16:45;13.23;;;5.90;;
51872;SDS011;52863;52.504;13.480;2022-10-29T00:19:12;10.87;;;5.77;;
51872;SDS011;52863;52.504;13.480;2022-10-29T00:21:39;14.77;;;5.77;;
51872;SDS011;52863;52.504;13.480;2022-10-29T00:24:07;12.83;;;6.00;;
51872;SDS011;52863;52.504;13.480;2022-10-29T00:26:34;9.63;;;5.07;;
51872;SDS011;52863;52.504;13.480;2022-10-29T00:29:01;14.93;;;5.37;;
51872;SDS011;52863;52.504;13.480;2022-10-29T00:31:30;15.27;;;5.07;;
51872;SDS011;52863;52.504;13.480;2022-10-29T00:34:00;12.80;;;6.00;;
51872;SDS011;52863;52.504;13.480;2022-10-29T00:36:27;10.50;;;5.83;;
51872;SDS011;52863;52.504;13.480;2022-10-29T00:38:55;11.63;;;5.40;;
51872;SDS011;52863;52.504;13.480;2022-10-29T00:41:26;17.97;;;5.70;;
51872;SDS011;52863;52.504;13.480;2022-10-29T00:46:55;12.90;;;5.73;;
51872;SDS011;52863;52.504;13.480;2022-10-29T00:49:36;13.03;;;5.83;;
51872;SDS011;52863;52.504;13.480;2022-10-29T00:52:05;16.83;;;5.67;;
51872;SDS011;52863;52.504;13.480;2022-10-29T00:54:34;21.47;;;7.70;;
51872;SDS011;52863;52.504;13.480;2022-10-29T00:57:05;15.27;;;7.60;;
51872;SDS011;52863;52.504;13.480;2022-10-29T00:59:36;15.73;;;6.40;;
51872;SDS011;52863;52.504;13.480;2022-10-29T01:02:03;13.77;;;6.13;;
51872;SDS011;52863;52.504;13.480;2022-10-29T01:04:30;11.83;;;5.50;;
51872;SDS011;52863;52.504;13.480;2022-10-29T01:06:57;13.63;;;5.07;;
51872;SDS011;52863;52.504;13.480;2022-10-29T01:09:24;13.10;;;5.80;;
51872;SDS011;52863;52.504;13.480;2022-10-29T01:11:54;11.40;;;5.17;;
51872;SDS011;52863;52.504;13.480;2022-10-29T01:14:34;15.07;;;5.27;;
51872;SDS011;52863;52.504;13.480;2022-10-29T01:17:12;11.33;;;5.40;;
51872;SDS011;52863;52.504;13.480;2022-10-29T01:19:54;15.40;;;5.67;;
51872;SDS011;52863;52.504;13.480;2022-10-29T01:22:54;16.43;;;5.53;;
51872;SDS011;52863;52.504;13.480;2022-10-29T01:25:41;15.53;;;6.37;;
51872;SDS011;52863;52.504;13.480;2022-10-29T01:28:28;14.77;;;5.50;;
51872;SDS011;52863;52.504;13.480;2022-10-29T01:33:58;16.50;;;5.97;;
51872;SDS011;52863;52.504;13.480;2022-10-29T01:36:32;12.90;;;5.43;;
51872;SDS011;52863;52.504;13.480;2022-10-29T01:39:06;15.43;;;5.83;;
51872;SDS011;52863;52.504;13.480;2022-10-29T01:41:41;13.47;;;6.63;;
51872;SDS011;52863;52.504;13.480;2022-10-29T01:44:18;15.93;;;6.37;;
51872;SDS011;52863;52.504;13.480;2022-10-29T01:46:55;16.63;;;5.63;;
51872;SDS011;52863;52.504;13.480;2022-10-29T01:49:27;14.77;;;5.93;;
51872;SDS011;52863;52.504;13.480;2022-10-29T01:51:59;12.97;;;6.47;;
51872;SDS011;52863;52.504;13.480;2022-10-29T01:54:28;10.80;;;5.60;;
51872;SDS011;52863;52.504;13.480;2022-10-29T01:56:55;12.47;;;5.47;;
51872;SDS011;52863;52.504;13.480;2022-10-29T01:59:24;14.23;;;6.00;;
51872;SDS011;52863;52.504;13.480;2022-10-29T02:02:11;9.63;;;6.23;;
51872;SDS011;52863;52.504;13.480;2022-10-29T02:04:56;11.83;;;6.70;;
51872;SDS011;52863;52.504;13.480;2022-10-29T02:07:34;19.23;;;6.73;;
51872;SDS011;52863;52.504;13.480;2022-10-29T02:10:08;17.03;;;6.53;;
51872;SDS011;52863;52.504;13.480;2022-10-29T02:12:45;18.90;;;7.13;;
51872;SDS011;52863;52.504;13.480;2022-10-29T02:15:15;14.13;;;6.67;;
51872;SDS011;52863;52.504;13.480;2022-10-29T02:17:45;16.03;;;6.43;;
51872;SDS011;52863;52.504;13.480;2022-10-29T02:20:12;13.07;;;6.43;;
51872;SDS011;52863;52.504;13.480;2022-10-29T02:22:41;11.63;;;6.23;;
51872;SDS011;52863;52.504;13.480;2022-10-29T02:25:08;16.50;;;6.37;;
51872;SDS011;52863;52.504;13.480;2022-10-29T02:27:36;14.07;;;6.33;;
51872;SDS011;52863;52.504;13.480;2022-10-29T02:30:06;12.57;;;6.13;;
51872;SDS011;52863;52.504;13.480;2022-10-29T02:32:53;14.40;;;6.47;;
51872;SDS011;52863;52.504;13.480;2022-10-29T02:35:21;19.40;;;6.90;;
51872;SDS011;52863;52.504;13.480;2022-10-29T02:37:48;14.27;;;7.17;;
51872;SDS011;52863;52.504;13.480;2022-10-29T02:40:15;14.30;;;6.33;;
51872;SDS011;52863;52.504;13.480;2022-10-29T02:42:44;14.93;;;7.53;;
51872;SDS011;52863;52.504;13.480;2022-10-29T02:45:11;11.47;;;6.23;;
51872;SDS011;52863;52.504;13.480;2022-10-29T02:47:38;15.83;;;7.57;;
51872;SDS011;52863;52.504;13.480;2022-10-29T02:50:07;19.10;;;7.27;;
51872;SDS011;52863;52.504;13.480;2022-10-29T02:52:34;13.03;;;6.90;;
51872;SDS011;52863;52.504;13.480;2022-10-29T02:55:01;14.93;;;7.50;;
51872;SDS011;52863;52.504;13.480;2022-10-29T02:57:28;22.80;;;7.23;;
51872;SDS011;52863;52.504;13.480;2022-10-29T02:59:59;18.67;;;7.70;;
51872;SDS011;52863;52.504;13.480;2022-10-29T03:02:27;19.47;;;7.23;;
51872;SDS011;52863;52.504;13.480;2022-10-29T03:04:54;14.07;;;7.20;;
51872;SDS011;52863;52.504;13.480;2022-10-29T03:07:23;15.23;;;7.23;;
51872;SDS011;52863;52.504;13.480;2022-10-29T03:09:50;14.50;;;6.80;;
51872;SDS011;52863;52.504;13.480;2022-10-29T03:12:16;21.93;;;6.90;;
51872;SDS011;52863;52.504;13.480;2022-10-29T03:14:44;14.63;;;7.10;;
51872;SDS011;52863;52.504;13.480;2022-10-29T03:17:11;12.67;;;6.73;;
51872;SDS011;52863;52.504;13.480;2022-10-29T03:19:38;17.00;;;7.17;;
51872;SDS011;52863;52.504;13.480;2022-10-29T03:22:08;19.13;;;7.60;;
51872;SDS011;52863;52.504;13.480;2022-10-29T03:24:36;16.80;;;7.80;;
51872;SDS011;52863;52.504;13.480;2022-10-29T03:27:03;19.57;;;7.30;;
51872;SDS011;52863;52.504;13.480;2022-10-29T03:29:35;17.43;;;7.47;;
51872;SDS011;52863;52.504;13.480;2022-10-29T03:32:04;13.60;;;7.47;;
51872;SDS011;52863;52.504;13.480;2022-10-29T03:34:32;15.97;;;7.10;;
51872;SDS011;52863;52.504;13.480;2022-10-29T03:37:00;21.57;;;10.43;;
51872;SDS011;52863;52.504;13.480;2022-10-29T03:39:27;15.10;;;7.33;;
51872;SDS011;52863;52.504;13.480;2022-10-29T03:42:05;18.13;;;7.93;;
51872;SDS011;52863;52.504;13.480;2022-10-29T03:44:35;14.73;;;8.27;;
51872;SDS011;52863;52.504;13.480;2022-10-29T03:47:07;18.17;;;7.87;;
51872;SDS011;52863;52.504;13.480;2022-10-29T03:49:35;18.73;;;7.53;;
51872;SDS011;52863;52.504;13.480;2022-10-29T03:52:11;16.77;;;7.33;;
51872;SDS011;52863;52.504;13.480;2022-10-29T03:54:40;12.50;;;7.43;;
51872;SDS011;52863;52.504;13.480;2022-10-29T03:57:07;16.57;;;7.67;;
51872;SDS011;52863;52.504;13.480;2022-10-29T03:59:48;15.40;;;8.37;;
51872;SDS011;52863;52.504;13.480;2022-10-29T04:02:18;17.67;;;8.97;;
51872;SDS011;52863;52.504;13.480;2022-10-29T04:04:48;21.17;;;8.77;;
51872;SDS011;52863;52.504;13.480;2022-10-29T04:07:20;20.13;;;8.77;;
51872;SDS011;52863;52.504;13.480;2022-10-29T04:09:50;25.13;;;9.17;;
51872;SDS011;52863;52.504;13.480;2022-10-29T04:12:22;19.07;;;8.40;;
51872;SDS011;52863;52.504;13.480;2022-10-29T04:14:49;19.20;;;8.67;;
51872;SDS011;52863;52.504;13.480;2022-10-29T04:17:22;16.80;;;8.07;;
51872;SDS011;52863;52.504;13.480;2022-10-29T04:19:52;17.87;;;9.67;;
51872;SDS011;52863;52.504;13.480;2022-10-29T04:22:18;15.50;;;8.53;;
51872;SDS011;52863;52.504;13.480;2022-10-29T04:25:06;18.90;;;8.83;;
51872;SDS011;52863;52.504;13.480;2022-10-29T04:27:58;17.67;;;8.20;;
51872;SDS011;52863;52.504;13.480;2022-10-29T04:30:51;16.77;;;8.27;;
51872;SDS011;52863;52.504;13.480;2022-10-29T04:33:20;16.13;;;7.73;;
51872;SDS011;52863;52.504;13.480;2022-10-29T04:35:50;19.57;;;8.50;;
51872;SDS011;52863;52.504;13.480;2022-10-29T04:38:23;16.77;;;8.53;;
51872;SDS011;52863;52.504;13.480;2022-10-29T04:40:51;14.17;;;8.60;;
51872;SDS011;52863;52.504;13.480;2022-10-29T04:43:19;16.17;;;7.83;;
51872;SDS011;52863;52.504;13.480;2022-10-29T04:45:49;17.07;;;8.57;;
51872;SDS011;52863;52.504;13.480;2022-10-29T04:48:17;21.00;;;9.20;;
51872;SDS011;52863;52.504;13.480;2022-10-29T04:50:44;20.80;;;9.70;;
51872;SDS011;52863;52.504;13.480;2022-10-29T04:53:12;20.43;;;8.90;;
51872;SDS011;52863;52.504;13.480;2022-10-29T04:55:40;15.83;;;8.30;;
51872;SDS011;52863;52.504;13.480;2022-10-29T04:58:09;15.20;;;7.83;;
51872;SDS011;52863;52.504;13.480;2022-10-29T05:00:38;14.30;;;8.43;;
51872;SDS011;52863;52.504;13.480;2022-10-29T05:03:05;16.50;;;9.10;;
51872;SDS011;52863;52.504;13.480;2022-10-29T05:05:48;20.07;;;10.03;;
51872;SDS011;52863;52.504;13.480;2022-10-29T05:08:15;17.13;;;8.13;;
51872;SDS011;52863;52.504;13.480;2022-10-29T05:10:42;12.83;;;7.20;;
51872;SDS011;52863;52.504;13.480;2022-10-29T05:13:10;10.07;;;6.47;;
51872;SDS011;52863;52.504;13.480;2022-10-29T05:15:38;19.83;;;8.53;;
51872;SDS011;52863;52.504;13.480;2022-10-29T05:18:05;17.33;;;8.57;;
51872;SDS011;52863;52.504;13.480;2022-10-29T05:20:33;16.43;;;8.97;;
51872;SDS011;52863;52.504;13.480;2022-10-29T05:23:00;13.47;;;8.20;;
51872;SDS011;52863;52.504;13.480;2022-10-29T05:25:28;18.23;;;9.20;;
51872;SDS011;52863;52.504;13.480;2022-10-29T05:28:00;14.10;;;8.97;;
51872;SDS011;52863;52.504;13.480;2022-10-29T05:30:27;15.97;;;8.40;;
51872;SDS011;52863;52.504;13.480;2022-10-29T05:32:55;13.73;;;7.60;;
51872;SDS011;52863;52.504;13.480;2022-10-29T05:35:22;21.40;;;8.57;;
51872;SDS011;52863;52.504;13.480;2022-10-29T05:37:50;17.53;;;9.30;;
51872;SDS011;52863;52.504;13.480;2022-10-29T05:40:16;20.50;;;9.83;;
51872;SDS011;52863;52.504;13.480;2022-10-29T05:42:44;16.63;;;9.37;;
51872;SDS011;52863;52.504;13.480;2022-10-29T05:45:12;17.63;;;9.37;;
51872;SDS011;52863;52.504;13.480;2022-10-29T05:47:39;18.83;;;9.70;;
51872;SDS011;52863;52.504;13.480;2022-10-29T05:50:08;19.93;;;9.93;;
51872;SDS011;52863;52.504;13.480;2022-10-29T05:52:35;21.23;;;10.07;;
51872;SDS011;52863;52.504;13.480;2022-10-29T05:55:02;20.03;;;10.30;;
51872;SDS011;52863;52.504;13.480;2022-10-29T05:57:30;19.30;;;9.60;;
51872;SDS011;52863;52.504;13.480;2022-10-29T05:59:57;20.73;;;10.10;;
51872;SDS011;52863;52.504;13.480;2022-10-29T06:02:23;29.40;;;10.87;;
51872;SDS011;52863;52.504;13.480;2022-10-29T06:04:51;19.70;;;10.43;;
51872;SDS011;52863;52.504;13.480;2022-10-29T06:07:18;21.07;;;9.50;;
51872;SDS011;52863;52.504;13.480;2022-10-29T06:09:45;17.57;;;10.13;;
51872;SDS011;52863;52.504;13.480;2022-10-29T06:12:12;22.83;;;9.90;;
51872;SDS011;52863;52.504;13.480;2022-10-29T06:14:38;21.23;;;10.20;;
51872;SDS011;52863;52.504;13.480;2022-10-29T06:17:05;19.60;;;9.40;;
51872;SDS011;52863;52.504;13.480;2022-10-29T06:19:32;19.47;;;10.57;;
51872;SDS011;52863;52.504;13.480;2022-10-29T06:21:59;23.33;;;10.37;;
51872;SDS011;52863;52.504;13.480;2022-10-29T06:24:27;22.00;;;9.93;;
51872;SDS011;52863;52.504;13.480;2022-10-29T06:26:53;22.90;;;10.17;;
51872;SDS011;52863;52.504;13.480;2022-10-29T06:29:20;24.20;;;10.23;;
51872;SDS011;52863;52.504;13.480;2022-10-29T06:31:47;20.60;;;9.63;;
51872;SDS011;52863;52.504;13.480;2022-10-29T06:34:14;24.47;;;10.83;;
51872;SDS011;52863;52.504;13.480;2022-10-29T06:36:41;18.40;;;10.03;;
51872;SDS011;52863;52.504;13.480;2022-10-29T06:39:08;21.43;;;10.80;;
51872;SDS011;52863;52.504;13.480;2022-10-29T06:41:35;21.27;;;11.20;;
51872;SDS011;52863;52.504;13.480;2022-10-29T06:44:04;21.20;;;10.47;;
51872;SDS011;52863;52.504;13.480;2022-10-29T06:46:31;17.27;;;10.00;;
51872;SDS011;52863;52.504;13.480;2022-10-29T06:48:59;19.00;;;9.70;;
51872;SDS011;52863;52.504;13.480;2022-10-29T06:51:27;19.33;;;9.13;;
51872;SDS011;52863;52.504;13.480;2022-10-29T06:53:56;21.13;;;9.93;;
51872;SDS011;52863;52.504;13.480;2022-10-29T06:56:23;20.17;;;9.20;;
51872;SDS011;52863;52.504;13.480;2022-10-29T06:58:51;20.10;;;9.80;;
51872;SDS011;52863;52.504;13.480;2022-10-29T07:01:17;18.57;;;9.03;;
51872;SDS011;52863;52.504;13.480;2022-10-29T07:03:44;12.57;;;9.00;;
51872;SDS011;52863;52.504;13.480;2022-10-29T07:06:11;17.50;;;8.43;;
51872;SDS011;52863;52.504;13.480;2022-10-29T07:08:38;18.67;;;9.47;;
51872;SDS011;52863;52.504;13.480;2022-10-29T07:11:05;14.20;;;8.57;;
51872;SDS011;52863;52.504;13.480;2022-10-29T07:13:32;14.10;;;8.50;;
51872;SDS011;52863;52.504;13.480;2022-10-29T07:15:59;15.53;;;8.27;;
51872;SDS011;52863;52.504;13.480;2022-10-29T07:18:27;20.97;;;8.10;;
51872;SDS011;52863;52.504;13.480;2022-10-29T07:20:57;12.13;;;7.17;;
51872;SDS011;52863;52.504;13.480;2022-10-29T07:23:24;18.60;;;8.10;;
51872;SDS011;52863;52.504;13.480;2022-10-29T07:25:51;12.40;;;6.33;;
51872;SDS011;52863;52.504;13.480;2022-10-29T07:28:18;15.17;;;7.00;;
51872;SDS011;52863;52.504;13.480;2022-10-29T07:30:47;11.63;;;6.43;;
51872;SDS011;52863;52.504;13.480;2022-10-29T07:33:15;10.23;;;5.97;;
51872;SDS011;52863;52.504;13.480;2022-10-29T07:35:42;12.80;;;6.50;;
51872;SDS011;52863;52.504;13.480;2022-10-29T07:38:10;18.43;;;7.00;;
51872;SDS011;52863;52.504;13.480;2022-10-29T07:40:37;12.80;;;6.40;;
51872;SDS011;52863;52.504;13.480;2022-10-29T07:43:05;11.33;;;6.33;;
51872;SDS011;52863;52.504;13.480;2022-10-29T07:45:32;13.23;;;6.67;;
51872;SDS011;52863;52.504;13.480;2022-10-29T07:48:00;14.43;;;7.07;;
51872;SDS011;52863;52.504;13.480;2022-10-29T07:50:29;11.37;;;6.13;;
51872;SDS011;52863;52.504;13.480;2022-10-29T07:52:57;13.47;;;6.20;;
51872;SDS011;52863;52.504;13.480;2022-10-29T07:55:25;14.33;;;5.77;;
51872;SDS011;52863;52.504;13.480;2022-10-29T07:57:58;12.90;;;6.00;;
51872;SDS011;52863;52.504;13.480;2022-10-29T08:00:25;15.20;;;6.37;;
51872;SDS011;52863;52.504;13.480;2022-10-29T08:02:53;13.97;;;5.93;;
51872;SDS011;52863;52.504;13.480;2022-10-29T08:05:20;12.90;;;6.10;;
51872;SDS011;52863;52.504;13.480;2022-10-29T08:07:48;11.67;;;5.67;;
51872;SDS011;52863;52.504;13.480;2022-10-29T08:10:14;14.33;;;5.53;;
51872;SDS011;52863;52.504;13.480;2022-10-29T08:12:47;15.53;;;6.13;;
51872;SDS011;52863;52.504;13.480;2022-10-29T08:15:14;13.43;;;5.53;;
51872;SDS011;52863;52.504;13.480;2022-10-29T08:17:41;16.63;;;5.83;;
51872;SDS011;52863;52.504;13.480;2022-10-29T08:20:08;15.47;;;5.73;;
51872;SDS011;52863;52.504;13.480;2022-10-29T08:22:35;12.30;;;5.67;;
51872;SDS011;52863;52.504;13.480;2022-10-29T08:25:03;14.53;;;5.90;;
51872;SDS011;52863;52.504;13.480;2022-10-29T08:27:30;13.13;;;5.17;;
51872;SDS011;52863;52.504;13.480;2022-10-29T08:29:57;10.50;;;5.37;;
51872;SDS011;52863;52.504;13.480;2022-10-29T08:32:24;10.63;;;5.00;;
51872;SDS011;52863;52.504;13.480;2022-10-29T08:34:51;14.80;;;5.97;;
51872;SDS011;52863;52.504;13.480;2022-10-29T08:37:18;12.67;;;5.53;;
51872;SDS011;52863;52.504;13.480;2022-10-29T08:39:45;14.60;;;5.87;;
51872;SDS011;52863;52.504;13.480;2022-10-29T08:42:15;8.00;;;4.63;;
51872;SDS011;52863;52.504;13.480;2022-10-29T08:47:54;11.17;;;4.87;;
51872;SDS011;52863;52.504;13.480;2022-10-29T08:50:50;13.03;;;5.87;;
51872;SDS011;52863;52.504;13.480;2022-10-29T08:53:22;12.50;;;5.47;;
51872;SDS011;52863;52.504;13.480;2022-10-29T08:55:59;13.43;;;5.43;;
51872;SDS011;52863;52.504;13.480;2022-10-29T08:58:27;11.27;;;5.23;;
51872;SDS011;52863;52.504;13.480;2022-10-29T09:01:00;12.43;;;4.93;;
51872;SDS011;52863;52.504;13.480;2022-10-29T09:03:27;14.00;;;5.47;;
51872;SDS011;52863;52.504;13.480;2022-10-29T09:05:58;11.57;;;5.50;;
51872;SDS011;52863;52.504;13.480;2022-10-29T09:08:34;14.70;;;5.73;;
51872;SDS011;52863;52.504;13.480;2022-10-29T09:11:10;14.43;;;6.17;;
51872;SDS011;52863;52.504;13.480;2022-10-29T09:13:49;17.40;;;6.37;;
51872;SDS011;52863;52.504;13.480;2022-10-29T09:16:31;12.70;;;6.13;;
51872;SDS011;52863;52.504;13.480;2022-10-29T09:19:13;12.83;;;5.03;;
51872;SDS011;52863;52.504;13.480;2022-10-29T09:21:50;13.23;;;6.03;;
51872;SDS011;52863;52.504;13.480;2022-10-29T09:24:23;14.80;;;5.33;;
51872;SDS011;52863;52.504;13.480;2022-10-29T09:27:00;9.13;;;5.67;;
51872;SDS011;52863;52.504;13.480;2022-10-29T09:32:28;13.50;;;6.03;;
51872;SDS011;52863;52.504;13.480;2022-10-29T09:34:59;14.73;;;5.70;;
51872;SDS011;52863;52.504;13.480;2022-10-29T09:37:32;11.07;;;5.40;;
51872;SDS011;52863;52.504;13.480;2022-10-29T09:40:12;14.97;;;5.47;;
51872;SDS011;52863;52.504;13.480;2022-10-29T09:42:45;13.83;;;5.40;;
51872;SDS011;52863;52.504;13.480;2022-10-29T09:45:14;13.83;;;5.63;;
51872;SDS011;52863;52.504;13.480;2022-10-29T09:47:47;13.07;;;5.10;;
51872;SDS011;52863;52.504;13.480;2022-10-29T09:50:24;12.63;;;5.97;;
51872;SDS011;52863;52.504;13.480;2022-10-29T09:52:57;13.77;;;5.07;;
51872;SDS011;52863;52.504;13.480;2022-10-29T09:55:26;13.97;;;5.40;;
51872;SDS011;52863;52.504;13.480;2022-10-29T09:57:55;12.83;;;4.93;;
51872;SDS011;52863;52.504;13.480;2022-10-29T10:00:24;17.93;;;5.50;;
51872;SDS011;52863;52.504;13.480;2022-10-29T10:02:53;15.23;;;5.23;;
51872;SDS011;52863;52.504;13.480;2022-10-29T10:05:25;10.47;;;5.57;;
51872;SDS011;52863;52.504;13.480;2022-10-29T10:08:04;13.47;;;4.73;;
51872;SDS011;52863;52.504;13.480;2022-10-29T10:10:33;15.03;;;5.33;;
51872;SDS011;52863;52.504;13.480;2022-10-29T10:13:03;10.70;;;4.73;;
51872;SDS011;52863;52.504;13.480;2022-10-29T10:15:39;9.77;;;4.20;;
51872;SDS011;52863;52.504;13.480;2022-10-29T10:18:16;11.53;;;5.00;;
51872;SDS011;52863;52.504;13.480;2022-10-29T10:20:46;14.63;;;5.27;;
51872;SDS011;52863;52.504;13.480;2022-10-29T10:23:25;15.17;;;4.67;;
51872;SDS011;52863;52.504;13.480;2022-10-29T10:25:55;15.43;;;4.77;;
51872;SDS011;52863;52.504;13.480;2022-10-29T10:28:30;13.23;;;4.63;;
51872;SDS011;52863;52.504;13.480;2022-10-29T10:31:05;10.80;;;4.73;;
51872;SDS011;52863;52.504;13.480;2022-10-29T10:33:36;9.87;;;5.30;;
51872;SDS011;52863;52.504;13.480;2022-10-29T10:36:15;13.93;;;5.10;;
51872;SDS011;52863;52.504;13.480;2022-10-29T10:38:46;12.03;;;4.90;;
51872;SDS011;52863;52.504;13.480;2022-10-29T10:41:20;12.50;;;4.87;;
51872;SDS011;52863;52.504;13.480;2022-10-29T10:43:49;11.67;;;4.57;;
51872;SDS011;52863;52.504;13.480;2022-10-29T10:46:20;11.07;;;4.53;;
51872;SDS011;52863;52.504;13.480;2022-10-29T10:48:59;12.53;;;5.20;;
51872;SDS011;52863;52.504;13.480;2022-10-29T10:51:30;13.53;;;4.80;;
51872;SDS011;52863;52.504;13.480;2022-10-29T10:54:02;10.53;;;4.70;;
51872;SDS011;52863;52.504;13.480;2022-10-29T10:56:50;10.30;;;4.77;;
51872;SDS011;52863;52.504;13.480;2022-10-29T10:59:20;11.93;;;3.87;;
51872;SDS011;52863;52.504;13.480;2022-10-29T11:01:50;11.37;;;4.20;;
51872;SDS011;52863;52.504;13.480;2022-10-29T11:04:19;9.40;;;3.93;;
51872;SDS011;52863;52.504;13.480;2022-10-29T11:06:53;12.07;;;4.10;;
51872;SDS011;52863;52.504;13.480;2022-10-29T11:09:25;10.97;;;4.17;;
51872;SDS011;52863;52.504;13.480;2022-10-29T11:11:58;9.97;;;4.30;;
51872;SDS011;52863;52.504;13.480;2022-10-29T11:14:28;11.10;;;3.80;;
51872;SDS011;52863;52.504;13.480;2022-10-29T11:17:00;12.53;;;4.37;;
51872;SDS011;52863;52.504;13.480;2022-10-29T11:19:30;8.80;;;3.97;;
51872;SDS011;52863;52.504;13.480;2022-10-29T11:22:06;10.07;;;4.93;;
51872;SDS011;52863;52.504;13.480;2022-10-29T11:24:52;14.07;;;4.13;;
51872;SDS011;52863;52.504;13.480;2022-10-29T11:27:28;13.27;;;4.28;;
51872;SDS011;52863;52.504;13.480;2022-10-29T11:30:03;14.43;;;3.80;;
51872;SDS011;52863;52.504;13.480;2022-10-29T11:35:21;11.02;;;4.13;;
51872;SDS011;52863;52.504;13.480;2022-10-29T11:37:55;9.67;;;4.00;;
51872;SDS011;52863;52.504;13.480;2022-10-29T11:40:28;13.20;;;4.47;;
51872;SDS011;52863;52.504;13.480;2022-10-29T11:43:01;10.80;;;4.23;;
51872;SDS011;52863;52.504;13.480;2022-10-29T11:45:44;10.03;;;4.40;;
51872;SDS011;52863;52.504;13.480;2022-10-29T11:48:24;10.70;;;4.30;;
51872;SDS011;52863;52.504;13.480;2022-10-29T11:51:05;11.33;;;5.10;;
51872;SDS011;52863;52.504;13.480;2022-10-29T11:53:43;10.20;;;4.20;;
51872;SDS011;52863;52.504;13.480;2022-10-29T11:56:21;15.33;;;5.33;;
51872;SDS011;52863;52.504;13.480;2022-10-29T11:58:59;13.57;;;5.03;;
51872;SDS011;52863;52.504;13.480;2022-10-29T12:01:33;16.27;;;6.33;;
51872;SDS011;52863;52.504;13.480;2022-10-29T12:04:24;15.20;;;5.97;;
51872;SDS011;52863;52.504;13.480;2022-10-29T12:06:58;13.13;;;5.00;;
51872;SDS011;52863;52.504;13.480;2022-10-29T12:09:54;17.83;;;5.83;;
51872;SDS011;52863;52.504;13.480;2022-10-29T12:12:34;15.57;;;6.10;;
51872;SDS011;52863;52.504;13.480;2022-10-29T12:15:08;12.77;;;4.90;;
51872;SDS011;52863;52.504;13.480;2022-10-29T12:17:42;11.67;;;4.27;;
51872;SDS011;52863;52.504;13.480;2022-10-29T12:20:15;13.80;;;4.67;;
51872;SDS011;52863;52.504;13.480;2022-10-29T12:22:54;10.10;;;4.43;;
51872;SDS011;52863;52.504;13.480;2022-10-29T12:25:31;12.07;;;4.33;;
51872;SDS011;52863;52.504;13.480;2022-10-29T12:28:08;11.07;;;4.33;;
51872;SDS011;52863;52.504;13.480;2022-10-29T12:30:44;11.63;;;4.30;;
51872;SDS011;52863;52.504;13.480;2022-10-29T12:33:21;9.07;;;4.13;;
51872;SDS011;52863;52.504;13.480;2022-10-29T12:35:53;14.10;;;6.13;;
51872;SDS011;52863;52.504;13.480;2022-10-29T12:38:34;12.63;;;4.93;;
51872;SDS011;52863;52.504;13.480;2022-10-29T12:41:04;13.07;;;4.17;;
51872;SDS011;52863;52.504;13.480;2022-10-29T12:43:34;13.07;;;4.63;;
51872;SDS011;52863;52.504;13.480;2022-10-29T12:46:06;12.23;;;4.33;;
51872;SDS011;52863;52.504;13.480;2022-10-29T12:48:48;14.27;;;4.80;;
51872;SDS011;52863;52.504;13.480;2022-10-29T12:51:25;9.23;;;4.70;;
51872;SDS011;52863;52.504;13.480;2022-10-29T12:54:00;13.77;;;6.00;;
51872;SDS011;52863;52.504;13.480;2022-10-29T12:56:39;17.30;;;6.23;;
51872;SDS011;52863;52.504;13.480;2022-10-29T12:59:30;14.17;;;5.53;;
51872;SDS011;52863;52.504;13.480;2022-10-29T13:10:51;15.20;;;6.20;;
51872;SDS011;52863;52.504;13.480;2022-10-29T13:16:20;14.67;;;5.80;;
51872;SDS011;52863;52.504;13.480;2022-10-29T13:21:54;13.67;;;6.17;;
51872;SDS011;52863;52.504;13.480;2022-10-29T13:24:28;12.60;;;5.70;;
51872;SDS011;52863;52.504;13.480;2022-10-29T13:26:57;14.73;;;5.97;;
51872;SDS011;52863;52.504;13.480;2022-10-29T13:29:39;10.97;;;5.20;;
51872;SDS011;52863;52.504;13.480;2022-10-29T13:32:29;14.63;;;5.40;;
51872;SDS011;52863;52.504;13.480;2022-10-29T13:34:57;15.10;;;5.73;;
51872;SDS011;52863;52.504;13.480;2022-10-29T13:37:35;15.97;;;5.83;;
51872;SDS011;52863;52.504;13.480;2022-10-29T13:43:33;13.90;;;7.47;;
51872;SDS011;52863;52.504;13.480;2022-10-29T13:48:54;13.20;;;5.63;;
51872;SDS011;52863;52.504;13.480;2022-10-29T13:51:26;14.77;;;6.10;;
51872;SDS011;52863;52.504;13.480;2022-10-29T13:54:51;14.20;;;5.80;;
51872;SDS011;52863;52.504;13.480;2022-10-29T13:57:24;14.50;;;5.47;;
51872;SDS011;52863;52.504;13.480;2022-10-29T13:59:58;14.90;;;5.90;;
51872;SDS011;52863;52.504;13.480;2022-10-29T14:02:35;22.43;;;6.40;;
51872;SDS011;52863;52.504;13.480;2022-10-29T14:05:14;14.17;;;5.87;;
51872;SDS011;52863;52.504;13.480;2022-10-29T14:07:48;13.83;;;5.50;;
51872;SDS011;52863;52.504;13.480;2022-10-29T14:10:19;11.70;;;5.67;;
51872;SDS011;52863;52.504;13.480;2022-10-29T14:12:50;12.07;;;5.87;;
51872;SDS011;52863;52.504;13.480;2022-10-29T14:15:22;13.33;;;6.20;;
51872;SDS011;52863;52.504;13.480;2022-10-29T14:17:48;12.83;;;6.30;;
51872;SDS011;52863;52.504;13.480;2022-10-29T14:20:23;13.83;;;6.33;;
51872;SDS011;52863;52.504;13.480;2022-10-29T14:22:51;16.57;;;6.80;;
51872;SDS011;52863;52.504;13.480;2022-10-29T14:25:23;12.80;;;6.17;;
51872;SDS011;52863;52.504;13.480;2022-10-29T14:30:58;17.20;;;5.90;;
51872;SDS011;52863;52.504;13.480;2022-10-29T14:33:27;10.03;;;6.20;;
51872;SDS011;52863;52.504;13.480;2022-10-29T14:35:58;13.50;;;6.30;;
51872;SDS011;52863;52.504;13.480;2022-10-29T14:38:31;16.23;;;6.47;;
51872;SDS011;52863;52.504;13.480;2022-10-29T14:41:05;16.50;;;6.73;;
51872;SDS011;52863;52.504;13.480;2022-10-29T14:43:32;11.73;;;6.27;;
51872;SDS011;52863;52.504;13.480;2022-10-29T14:48:54;16.60;;;7.57;;
51872;SDS011;52863;52.504;13.480;2022-10-29T14:51:24;21.03;;;8.60;;
51872;SDS011;52863;52.504;13.480;2022-10-29T14:53:52;18.20;;;11.87;;
51872;SDS011;52863;52.504;13.480;2022-10-29T14:56:25;25.37;;;19.23;;
51872;SDS011;52863;52.504;13.480;2022-10-29T14:58:59;22.00;;;10.27;;
51872;SDS011;52863;52.504;13.480;2022-10-29T15:01:33;23.87;;;18.23;;
51872;SDS011;52863;52.504;13.480;2022-10-29T15:04:15;18.40;;;9.70;;
51872;SDS011;52863;52.504;13.480;2022-10-29T15:06:44;21.00;;;11.03;;
51872;SDS011;52863;52.504;13.480;2022-10-29T15:09:11;19.63;;;14.77;;
51872;SDS011;52863;52.504;13.480;2022-10-29T15:11:47;15.80;;;8.07;;
51872;SDS011;52863;52.504;13.480;2022-10-29T15:14:24;24.27;;;12.93;;
51872;SDS011;52863;52.504;13.480;2022-10-29T15:16:57;20.33;;;9.17;;
51872;SDS011;52863;52.504;13.480;2022-10-29T15:19:25;16.83;;;9.30;;
51872;SDS011;52863;52.504;13.480;2022-10-29T15:21:53;15.10;;;8.43;;
51872;SDS011;52863;52.504;13.480;2022-10-29T15:24:20;12.60;;;7.50;;
51872;SDS011;52863;52.504;13.480;2022-10-29T15:26:49;16.60;;;8.03;;
51872;SDS011;52863;52.504;13.480;2022-10-29T15:29:20;12.33;;;7.23;;